createdAt,value
2022-11-24T00:01:07.689Z,99518.59
2022-11-24T00:04:11.781Z,99522.34
2022-11-24T00:07:14.992Z,99518.88
2022-11-24T00:10:21.478Z,99524.25
2022-11-24T00:13:25.514Z,99524.59
2022-11-24T00:16:36.583Z,99529.63
2022-11-24T00:19:39.185Z,99529.13
2022-11-24T00:22:41.648Z,99530.78
2022-11-24T00:25:44.195Z,99531.63
2022-11-24T00:28:48.360Z,99531.34
2022-11-24T00:31:50.791Z,99534.31
2022-11-24T00:34:54.007Z,99543.91
2022-11-24T00:37:56.512Z,99541.59
2022-11-24T00:40:58.952Z,99542.34
2022-11-24T00:44:01.641Z,99547.56
2022-11-24T00:47:04.177Z,99549.31
2022-11-24T00:50:07.350Z,99554.53
2022-11-24T00:53:10.546Z,99562.66
2022-11-24T00:56:13.610Z,99563.91
2022-11-24T00:59:17.041Z,99563.88
2022-11-24T01:02:19.681Z,99564.38
2022-11-24T01:05:23.074Z,99564.66
2022-11-24T01:08:25.661Z,99567.13
2022-11-24T01:11:54.573Z,99562.03
2022-11-24T01:14:58.878Z,99559.44
2022-11-24T01:18:01.468Z,99570.09
2022-11-24T01:21:09.864Z,99571.47
2022-11-24T01:24:13.601Z,99573.13
2022-11-24T01:27:16.583Z,99568.28
2022-11-24T01:30:22.640Z,99572.00
2022-11-24T01:33:26.239Z,99573.38
2022-11-24T01:36:29.603Z,99573.59
2022-11-24T01:39:32.382Z,99573.97
2022-11-24T01:42:50.695Z,99573.38
2022-11-24T01:45:54.823Z,99574.97
2022-11-24T01:49:11.932Z,99578.78
2022-11-24T01:52:20.039Z,99575.59
2022-11-24T01:55:28.811Z,99576.34
2022-11-24T01:58:36.792Z,99586.25
2022-11-24T02:01:40.440Z,99575.81
2022-11-24T02:04:45.494Z,99584.16
2022-11-24T02:07:48.793Z,99584.66
2022-11-24T02:10:54.884Z,99586.44
2022-11-24T02:13:58.449Z,99572.56
2022-11-24T02:17:01.736Z,99578.84
2022-11-24T02:20:07.957Z,99583.09
2022-11-24T02:23:28.527Z,99592.00
2022-11-24T02:26:48.465Z,99587.47
2022-11-24T02:29:51.784Z,99587.13
2022-11-24T02:32:55.339Z,99585.81
2022-11-24T02:35:58.840Z,99583.94
2022-11-24T02:39:03.621Z,99583.00
2022-11-24T02:42:12.944Z,99590.47
2022-11-24T02:45:16.682Z,99587.13
2022-11-24T02:48:19.685Z,99583.19
2022-11-24T02:51:23.223Z,99590.25
2022-11-24T02:54:25.857Z,99581.66
2022-11-24T02:57:28.378Z,99590.78
2022-11-24T03:00:30.912Z,99584.13
2022-11-24T03:03:33.629Z,99597.13
2022-11-24T03:06:36.760Z,99590.69
2022-11-24T03:09:39.403Z,99593.06
2022-11-24T03:12:43.157Z,99594.06
2022-11-24T03:15:45.538Z,99601.13
2022-11-24T03:18:51.176Z,99605.44
2022-11-24T03:21:53.655Z,99600.56
2022-11-24T03:24:56.748Z,99603.00
2022-11-24T03:27:59.732Z,99597.38
2022-11-24T03:31:02.765Z,99614.91
2022-11-24T03:34:06.329Z,99610.88
2022-11-24T03:37:09.807Z,99617.25
2022-11-24T03:40:13.402Z,99606.28
2022-11-24T03:43:15.951Z,99620.47
2022-11-24T03:46:19.356Z,99623.00
2022-11-24T03:49:22.073Z,99620.75
2022-11-24T03:52:26.672Z,99625.66
2022-11-24T03:55:30.762Z,99625.91
2022-11-24T03:58:33.788Z,99630.78
2022-11-24T04:01:36.270Z,99623.78
2022-11-24T04:04:39.344Z,99630.81
2022-11-24T04:07:42.066Z,99626.78
2022-11-24T04:10:44.822Z,99624.38
2022-11-24T04:13:48.303Z,99630.88
2022-11-24T04:16:51.297Z,99631.69
2022-11-24T04:19:54.350Z,99639.94
2022-11-24T04:22:57.790Z,99634.31
2022-11-24T04:26:00.236Z,99648.00
2022-11-24T04:29:03.383Z,99645.88
2022-11-24T04:32:06.448Z,99658.84
2022-11-24T04:35:10.485Z,99649.16
2022-11-24T04:38:13.864Z,99656.44
2022-11-24T04:41:37.317Z,99655.06
2022-11-24T04:44:39.846Z,99655.88
2022-11-24T04:47:42.286Z,99673.09
2022-11-24T04:50:44.822Z,99663.69
2022-11-24T04:53:49.169Z,99664.78
2022-11-24T04:56:52.662Z,99679.28
2022-11-24T04:59:55.428Z,99684.09
2022-11-24T05:02:58.928Z,99684.09
2022-11-24T05:06:02.912Z,99690.28
2022-11-24T05:09:08.509Z,99692.16
2022-11-24T05:12:11.888Z,99701.81
2022-11-24T05:15:14.350Z,99694.84
2022-11-24T05:18:16.919Z,99712.81
2022-11-24T05:21:19.527Z,99698.34
2022-11-24T05:24:22.877Z,99716.03
2022-11-24T05:27:26.353Z,99705.84
2022-11-24T05:30:30.995Z,99710.94
2022-11-24T05:33:35.023Z,99720.06
2022-11-24T05:36:57.700Z,99717.13
2022-11-24T05:40:00.738Z,99729.72
2022-11-24T05:43:03.691Z,99731.06
2022-11-24T05:46:06.264Z,99728.09
2022-11-24T05:49:08.858Z,99736.94
2022-11-24T05:52:11.375Z,99747.69
2022-11-24T05:55:15.568Z,99739.38
2022-11-24T05:58:18.289Z,99743.09
2022-11-24T06:01:20.903Z,99745.28
2022-11-24T06:04:23.333Z,99738.81
2022-11-24T06:07:25.814Z,99751.44
2022-11-24T06:10:28.594Z,99755.47
2022-11-24T06:13:31.137Z,99745.25
2022-11-24T06:16:34.446Z,99760.00
2022-11-24T06:19:41.852Z,99768.88
2022-11-24T06:22:45.925Z,99765.63
2022-11-24T06:25:51.607Z,99770.50
2022-11-24T06:28:55.008Z,99769.13
2022-11-24T06:31:57.605Z,99771.56
2022-11-24T06:35:01.053Z,99767.00
2022-11-24T06:38:05.220Z,99786.59
2022-11-24T06:41:13.149Z,99790.06
2022-11-24T06:44:15.667Z,99791.69
2022-11-24T06:47:24.579Z,99784.41
2022-11-24T06:50:44.348Z,99790.31
2022-11-24T06:57:26.505Z,99804.81
2022-11-24T07:00:35.026Z,99821.19
2022-11-24T07:03:42.230Z,99808.56
2022-11-24T07:06:45.224Z,99824.72
2022-11-24T07:09:48.673Z,99817.44
2022-11-24T07:12:52.187Z,99822.81
2022-11-24T07:15:55.582Z,99828.75
2022-11-24T07:18:59.811Z,99836.56
2022-11-24T07:22:03.641Z,99836.53
2022-11-24T07:25:09.855Z,99829.00
2022-11-24T07:28:12.647Z,99842.72
2022-11-24T07:32:30.123Z,99841.34
2022-11-24T07:41:47.336Z,99859.38
2022-11-24T07:44:57.973Z,99855.53
2022-11-24T07:48:17.226Z,99859.56
2022-11-24T07:58:10.716Z,99860.09
2022-11-24T08:01:25.678Z,99846.69
2022-11-24T08:04:42.467Z,99845.06
2022-11-24T08:07:45.760Z,99862.00
2022-11-24T08:10:48.535Z,99860.91
2022-11-24T08:13:51.539Z,99874.09
2022-11-24T08:16:54.938Z,99864.41
2022-11-24T08:19:58.204Z,99873.81
2022-11-24T08:23:11.149Z,99873.50
2022-11-24T08:26:23.499Z,99885.09
2022-11-24T08:29:29.697Z,99889.13
2022-11-24T08:32:33.550Z,99877.00
2022-11-24T08:36:11.153Z,99885.34
2022-11-24T08:39:14.204Z,99878.84
2022-11-24T08:42:17.834Z,99895.28
2022-11-24T08:45:26.036Z,99895.22
2022-11-24T08:53:13.994Z,99901.91
2022-11-24T08:56:19.689Z,99896.53
2022-11-24T09:00:46.252Z,99903.00
2022-11-24T09:04:12.118Z,99900.31
2022-11-24T09:07:27.552Z,99911.34
2022-11-24T09:12:18.831Z,99913.50
2022-11-24T09:15:44.374Z,99917.81
2022-11-24T09:28:58.696Z,99922.50
2022-11-24T09:43:56.956Z,99911.75
2022-11-24T09:49:14.214Z,99920.28
2022-11-24T09:52:39.338Z,99916.66
2022-11-24T09:55:58.178Z,99919.88
2022-11-24T09:59:34.524Z,99905.28
2022-11-24T10:03:21.231Z,99934.69
2022-11-24T10:06:35.267Z,99918.41
2022-11-24T10:09:51.957Z,99925.38
2022-11-24T10:13:26.563Z,99924.28
2022-11-24T10:16:51.523Z,99934.00
2022-11-24T10:20:20.359Z,99933.78
2022-11-24T10:28:52.885Z,99938.66
2022-11-24T10:32:00.921Z,99929.78
2022-11-24T10:35:18.601Z,99939.16
2022-11-24T10:44:20.632Z,99950.44
2022-11-24T10:47:26.738Z,99948.97
2022-11-24T10:50:36.367Z,99957.25
2022-11-24T10:53:41.067Z,99949.50
2022-11-24T10:56:46.196Z,99948.38
2022-11-24T10:59:52.918Z,99952.69
2022-11-24T11:03:23.898Z,99957.47
2022-11-24T11:06:32.392Z,99957.72
2022-11-24T11:09:36.082Z,99955.50
2022-11-24T11:12:44.954Z,99959.28
2022-11-24T11:15:49.345Z,99966.78
2022-11-24T11:18:53.785Z,99967.25
2022-11-24T11:22:03.716Z,99969.13
2022-11-24T11:25:19.524Z,99975.31
2022-11-24T11:28:28.093Z,99981.47
2022-11-24T11:31:41.368Z,99974.22
2022-11-24T11:34:46.768Z,99985.50
2022-11-24T11:37:51.710Z,99984.66
2022-11-24T11:40:55.060Z,99987.47
2022-11-24T11:44:22.711Z,99979.63
2022-11-24T11:47:30.074Z,100000.75
2022-11-24T11:51:14.853Z,99980.03
2022-11-24T11:54:45.517Z,99974.00
2022-11-24T11:58:05.566Z,99980.06
2022-11-24T12:01:26.952Z,99967.00
2022-11-24T12:04:43.957Z,99977.63
2022-11-24T12:08:10.768Z,99973.78
2022-11-24T12:11:34.565Z,99991.69
2022-11-24T12:14:53.222Z,99984.63
2022-11-24T12:18:56.433Z,99986.91
2022-11-24T12:21:57.815Z,99991.63
2022-11-24T12:25:32.695Z,100002.34
2022-11-24T12:28:44.613Z,99999.75
2022-11-24T12:32:26.613Z,100000.84
2022-11-24T12:35:39.345Z,100002.88
2022-11-24T12:38:42.790Z,100005.19
2022-11-24T12:41:46.199Z,100000.56
2022-11-24T12:45:13.181Z,100002.44
2022-11-24T12:48:29.416Z,100005.09
2022-11-24T12:51:39.881Z,100005.47
2022-11-24T12:54:42.765Z,99996.00
2022-11-24T12:58:36.697Z,100001.97
2022-11-24T13:02:00.906Z,100013.28
2022-11-24T13:05:33.359Z,99996.50
2022-11-24T13:08:39.264Z,100006.47
2022-11-24T13:11:44.744Z,100011.50
2022-11-24T13:14:49.156Z,100020.38
2022-11-24T13:18:07.139Z,100022.78
2022-11-24T13:21:48.152Z,100031.59
2022-11-24T13:25:22.664Z,100027.16
2022-11-24T13:29:09.249Z,100037.34
2022-11-24T13:32:23.458Z,100024.88
2022-11-24T13:35:27.545Z,100029.69
2022-11-24T13:38:42.037Z,100029.75
2022-11-24T13:41:47.947Z,100032.97
2022-11-24T13:44:52.725Z,100038.06
2022-11-24T13:47:55.469Z,100047.44
2022-11-24T13:51:04.222Z,100042.59
2022-11-24T13:54:16.281Z,100047.19
2022-11-24T13:57:40.138Z,100062.38
2022-11-24T14:01:11.590Z,100049.22
2022-11-24T14:05:30.052Z,100067.03
2022-11-24T14:08:38.425Z,100059.50
2022-11-24T14:11:42.142Z,100059.47
2022-11-24T14:14:47.874Z,100053.53
2022-11-24T14:17:53.149Z,100057.53
2022-11-24T14:20:56.905Z,100074.59
2022-11-24T14:24:04.279Z,100074.69
2022-11-24T14:27:14.596Z,100067.09
2022-11-24T14:30:20.941Z,100081.94
2022-11-24T14:33:25.815Z,100074.66
2022-11-24T14:36:28.655Z,100077.09
2022-11-24T14:39:41.382Z,100084.47
2022-11-24T14:42:50.641Z,100092.47
2022-11-24T14:46:00.847Z,100086.06
2022-11-24T14:49:04.932Z,100090.38
2022-11-24T14:52:18.346Z,100101.44
2022-11-24T14:55:28.179Z,100108.69
2022-11-24T14:58:37.675Z,100119.25
2022-11-24T15:01:43.385Z,100119.53
2022-11-24T15:05:06.963Z,100126.00
2022-11-24T15:08:14.511Z,100133.53
2022-11-24T15:11:18.533Z,100141.16
2022-11-24T15:14:52.197Z,100134.38
2022-11-24T15:18:02.834Z,100148.94
2022-11-24T15:21:06.580Z,100133.31
2022-11-24T15:24:19.312Z,100146.53
2022-11-24T15:27:21.941Z,100152.50
2022-11-24T15:30:25.260Z,100146.28
2022-11-24T15:33:28.614Z,100141.44
2022-11-24T15:36:32.059Z,100143.91
2022-11-24T15:39:34.915Z,100149.84
2022-11-24T15:42:38.311Z,100149.84
2022-11-24T15:45:41.875Z,100149.34
2022-11-24T15:48:45.374Z,100144.00
2022-11-24T15:51:48.543Z,100151.00
2022-11-24T15:54:56.235Z,100149.38
2022-11-24T15:57:58.860Z,100155.00
2022-11-24T16:01:02.432Z,100155.56
2022-11-24T16:04:05.782Z,100162.56
2022-11-24T16:07:12.406Z,100160.44
2022-11-24T16:10:28.360Z,100153.72
2022-11-24T16:13:31.115Z,100165.00
2022-11-24T16:16:33.819Z,100162.63
2022-11-24T16:19:41.607Z,100160.19
2022-11-24T16:22:45.146Z,100156.16
2022-11-24T16:25:47.770Z,100170.44
2022-11-24T16:28:50.525Z,100172.84
2022-11-24T16:31:55.079Z,100179.03
2022-11-24T16:34:58.367Z,100170.44
2022-11-24T16:38:01.102Z,100179.06
2022-11-24T16:41:04.181Z,100181.75
2022-11-24T16:44:06.937Z,100176.09
2022-11-24T16:47:12.691Z,100196.03
2022-11-24T16:50:18.190Z,100199.53
2022-11-24T16:53:21.420Z,100195.19
2022-11-24T16:56:24.320Z,100197.91
2022-11-24T16:59:27.052Z,100192.53
2022-11-24T17:02:29.970Z,100201.41
2022-11-24T17:05:32.639Z,100202.75
2022-11-24T17:08:38.128Z,100207.06
2022-11-24T17:11:41.545Z,100205.19
2022-11-24T17:14:52.689Z,100206.78
2022-11-24T17:18:24.012Z,100213.78
2022-11-24T17:21:28.802Z,100231.56
2022-11-24T17:24:32.226Z,100230.13
2022-11-24T17:27:35.044Z,100222.06
2022-11-24T17:30:38.259Z,100231.22
2022-11-24T17:33:40.859Z,100244.94
2022-11-24T17:36:46.105Z,100240.63
2022-11-24T17:40:12.569Z,100249.25
2022-11-24T17:43:13.364Z,100243.59
2022-11-24T17:46:19.965Z,100248.41
2022-11-24T17:49:23.632Z,100256.44
2022-11-24T17:52:26.324Z,100266.94
2022-11-24T17:55:29.475Z,100270.44
2022-11-24T17:58:39.753Z,100278.22
2022-11-24T18:01:45.367Z,100280.34
2022-11-24T18:04:49.075Z,100279.00
2022-11-24T18:07:51.634Z,100293.78
2022-11-24T18:10:54.318Z,100288.66
2022-11-24T18:14:01.138Z,100301.31
2022-11-24T18:17:04.629Z,100297.53
2022-11-24T18:20:07.928Z,100307.97
2022-11-24T18:23:11.520Z,100318.47
2022-11-24T18:26:16.220Z,100316.09
2022-11-24T18:29:19.541Z,100312.81
2022-11-24T18:32:22.157Z,100312.81
2022-11-24T18:35:24.792Z,100325.72
2022-11-24T18:38:28.569Z,100311.72
2022-11-24T18:41:32.485Z,100319.50
2022-11-24T18:44:36.390Z,100321.91
2022-11-24T18:47:39.364Z,100322.44
2022-11-24T18:50:44.573Z,100329.97
2022-11-24T18:53:53.482Z,100325.38
2022-11-24T18:57:01.747Z,100332.34
2022-11-24T19:00:08.324Z,100339.81
2022-11-24T19:03:11.041Z,100349.22
2022-11-24T19:06:19.040Z,100345.44
2022-11-24T19:09:23.004Z,100344.06
2022-11-24T19:12:26.561Z,100348.88
2022-11-24T19:15:33.993Z,100343.69
2022-11-24T19:18:37.633Z,100353.06
2022-11-24T19:21:43.331Z,100363.53
2022-11-24T19:24:46.710Z,100363.53
2022-11-24T19:27:49.412Z,100372.63
2022-11-24T19:30:52.152Z,100380.97
2022-11-24T19:33:58.049Z,100388.38
2022-11-24T19:37:00.947Z,100381.97
2022-11-24T19:40:05.188Z,100387.00
2022-11-24T19:43:08.587Z,100388.06
2022-11-24T19:46:14.770Z,100393.91
2022-11-24T19:49:17.327Z,100395.53
2022-11-24T19:52:20.129Z,100393.09
2022-11-24T19:55:23.589Z,100404.94
2022-11-24T19:58:26.544Z,100406.28
2022-11-24T20:01:39.883Z,100409.22
2022-11-24T20:04:43.771Z,100410.84
2022-11-24T20:07:46.508Z,100415.91
2022-11-24T20:10:50.238Z,100424.75
2022-11-24T20:13:53.661Z,100421.28
2022-11-24T20:16:57.218Z,100437.38
2022-11-24T20:20:00.681Z,100437.94
2022-11-24T20:23:03.520Z,100441.47
2022-11-24T20:26:19.582Z,100451.09
2022-11-24T20:29:23.173Z,100456.47
2022-11-24T20:32:28.222Z,100466.97
2022-11-24T20:35:30.878Z,100456.22
2022-11-24T20:38:34.923Z,100464.28
2022-11-24T20:41:40.081Z,100472.63
2022-11-24T20:44:42.711Z,100476.84
2022-11-24T20:47:45.381Z,100473.44
2022-11-24T20:50:51.270Z,100469.09
2022-11-24T20:53:59.563Z,100472.38
2022-11-24T20:57:02.362Z,100480.75
2022-11-24T21:00:06.576Z,100478.00
2022-11-24T21:03:10.744Z,100489.56
2022-11-24T21:06:14.726Z,100480.38
2022-11-24T21:09:19.085Z,100487.69
2022-11-24T21:12:22.182Z,100487.13
2022-11-24T21:15:25.741Z,100494.63
2022-11-24T21:18:28.310Z,100500.75
2022-11-24T21:21:35.269Z,100493.34
2022-11-24T21:24:38.723Z,100489.38
2022-11-24T21:27:42.385Z,100497.34
2022-11-24T21:30:45.688Z,100497.06
2022-11-24T21:33:50.793Z,100489.00
2022-11-24T21:36:53.408Z,100502.63
2022-11-24T21:39:55.953Z,100507.63
2022-11-24T21:42:59.701Z,100502.75
2022-11-24T21:46:06.262Z,100508.31
2022-11-24T21:49:09.131Z,100509.06
2022-11-24T21:52:12.812Z,100507.69
2022-11-24T21:55:15.530Z,100500.44
2022-11-24T21:58:18.768Z,100499.94
2022-11-24T22:01:28.240Z,100499.13
2022-11-24T22:04:32.455Z,100501.63
2022-11-24T22:07:35.889Z,100508.81
2022-11-24T22:10:38.596Z,100524.09
2022-11-24T22:13:43.586Z,100525.09
2022-11-24T22:16:46.973Z,100533.66
2022-11-24T22:19:50.286Z,100526.66
2022-11-24T22:22:52.948Z,100535.69
2022-11-24T22:25:55.654Z,100532.28
2022-11-24T22:28:58.448Z,100538.03
2022-11-24T22:32:01.856Z,100547.19
2022-11-24T22:35:05.973Z,100543.41
2022-11-24T22:38:09.341Z,100550.88
2022-11-24T22:41:17.436Z,100548.69
2022-11-24T22:44:19.985Z,100555.13
2022-11-24T22:47:22.523Z,100561.38
2022-11-24T22:50:25.152Z,100557.88
2022-11-24T22:53:28.515Z,100552.34
2022-11-24T22:56:33.020Z,100559.44
2022-11-24T22:59:36.009Z,100560.88
2022-11-24T23:02:38.632Z,100559.06
2022-11-24T23:05:41.515Z,100557.69
2022-11-24T23:08:44.772Z,100560.38
2022-11-24T23:11:49.120Z,100565.19
2022-11-24T23:14:51.714Z,100574.78
2022-11-24T23:17:54.832Z,100573.41
2022-11-24T23:20:57.645Z,100575.34
2022-11-24T23:24:02.447Z,100583.59
2022-11-24T23:27:05.511Z,100585.38
2022-11-24T23:30:08.824Z,100580.81
2022-11-24T23:33:11.446Z,100576.94
2022-11-24T23:36:19.839Z,100584.97
2022-11-24T23:39:24.380Z,100587.16
2022-11-24T23:42:27.898Z,100592.78
2022-11-24T23:45:30.586Z,100585.72
2022-11-24T23:48:36.684Z,100585.22
2022-11-24T23:51:42.044Z,100592.75
2022-11-24T23:54:44.723Z,100594.13
2022-11-24T23:57:47.295Z,100585.97
